ルレオ の空港の天気 - METARとTAF

Lulea / Kallax ( ESPA / LLA ) - スウェーデン ルレオ
飛行場実況気象(Metar)
観測時間12/10 05:50 CET (12/10 04:50 UTC)
風向・風速不定 1m/s
視程8000m
天気現象弱い雨
全天を覆う雲 雲底高度 180m
気温1℃
湿度100%
気圧996hPa
METARESPA 100450Z AUTO VRB02KT 8000 -RA OVC006/// 01/01 Q0996
過去の天気等 Google飛行場航空写真 Wunderground天気予報

過去48時間のMETAR

飛行場予報(TAF)
発表時間: 12/10 06:00 CET (12/10 05:00 UTC)
予報対象時間: 10日6時 CET ~ 10日13時 CET
風向・風速東南東 2m/s
視程8000m
天気現象弱い雨
全天の4割程度の雲 雲底高度 180m
全天を覆う雲 雲底高度 460m
10日6時 CET ~ 10日13時 CET に一時的に
視程2000m
天気現象雨雪
全天の8割程度の雲 雲底高度 120m
TAF COR ESPA 100500Z 1005/1012 11004KT 8000 -RA SCT006 OVC015
TEMPO 1005/1012 2000 RASN BKN004 RMK MIL